createdAt,value
2019-01-02T00:01:43.318Z,101905.41
2019-01-02T00:04:13.064Z,101907.85
2019-01-02T00:06:43.574Z,101905.35
2019-01-02T00:09:13.104Z,101922.63
2019-01-02T00:11:42.608Z,101921.55
2019-01-02T00:14:12.085Z,101916.52
2019-01-02T00:16:41.560Z,101920.03
2019-01-02T00:19:11.045Z,101921.72
2019-01-02T00:21:40.908Z,101912.07
2019-01-02T00:24:10.390Z,101926.63
2019-01-02T00:26:40.357Z,101928.67
2019-01-02T00:29:09.831Z,101919.16
2019-01-02T00:31:39.328Z,101941.22
2019-01-02T00:34:08.815Z,101930.69
2019-01-02T00:36:38.292Z,101920.84
2019-01-02T00:39:09.145Z,101926.98
2019-01-02T00:41:38.688Z,101931.92
2019-01-02T00:44:08.558Z,101934.88
2019-01-02T00:46:38.031Z,101933.15
2019-01-02T00:49:07.820Z,101949.49
2019-01-02T00:51:37.464Z,101944.27
2019-01-02T00:54:07.335Z,101946.23
2019-01-02T00:56:36.821Z,101950.82
2019-01-02T00:59:06.792Z,101948.01
2019-01-02T01:01:36.421Z,101950.87
2019-01-02T01:04:06.354Z,101953.91
2019-01-02T01:06:35.842Z,101952.40
2019-01-02T01:09:07.168Z,101952.48
2019-01-02T01:11:36.661Z,101948.70
2019-01-02T01:14:06.415Z,101952.16
2019-01-02T01:16:35.919Z,101959.05
2019-01-02T01:19:05.662Z,101956.52
2019-01-02T01:21:35.146Z,101966.67
2019-01-02T01:24:05.094Z,101965.12
2019-01-02T01:26:35.555Z,101967.59
2019-01-02T01:29:05.032Z,101974.41
2019-01-02T01:31:34.806Z,101980.80
2019-01-02T01:34:04.286Z,101984.05
2019-01-02T01:36:33.768Z,101988.89
2019-01-02T01:39:04.903Z,101997.41
2019-01-02T01:41:34.395Z,101991.35
2019-01-02T01:44:03.964Z,101996.79
2019-01-02T01:46:33.465Z,101988.30
2019-01-02T01:49:02.956Z,101995.05
2019-01-02T01:51:32.738Z,101993.25
2019-01-02T01:54:02.237Z,102002.36
2019-01-02T01:56:31.753Z,101999.06
2019-01-02T01:59:01.251Z,102002.02
2019-01-02T02:01:30.811Z,102006.80
2019-01-02T02:04:00.562Z,102025.36
2019-01-02T02:06:30.057Z,102019.47
2019-01-02T02:08:59.535Z,102022.34
2019-01-02T02:11:29.422Z,102029.52
2019-01-02T02:13:58.907Z,102040.78
2019-01-02T02:16:28.406Z,102031.50
2019-01-02T02:18:57.896Z,102033.59
2019-01-02T02:21:27.402Z,102040.39
2019-01-02T02:23:57.180Z,102040.41
2019-01-02T02:26:26.688Z,102046.89
2019-01-02T02:28:56.172Z,102050.89
2019-01-02T02:31:25.657Z,102046.16
2019-01-02T02:33:55.622Z,102045.91
2019-01-02T02:36:25.407Z,102050.63
2019-01-02T02:38:55.067Z,102061.80
2019-01-02T02:41:24.825Z,102062.81
2019-01-02T02:43:54.694Z,102062.62
2019-01-02T02:46:24.473Z,102065.98
2019-01-02T02:48:53.977Z,102066.56
2019-01-02T02:51:23.756Z,102063.92
2019-01-02T02:53:53.635Z,102069.84
2019-01-02T02:56:23.399Z,102072.58
2019-01-02T02:58:53.066Z,102078.30
2019-01-02T03:01:22.963Z,102076.80
2019-01-02T03:03:52.748Z,102073.63
2019-01-02T03:06:23.680Z,102086.53
2019-01-02T03:08:53.708Z,102081.75
2019-01-02T03:11:23.203Z,102086.08
2019-01-02T03:13:53.067Z,102091.77
2019-01-02T03:16:22.835Z,102098.08
2019-01-02T03:18:52.605Z,102114.20
2019-01-02T03:21:22.382Z,102110.89
2019-01-02T03:23:52.045Z,102118.37
2019-01-02T03:26:21.528Z,102118.86
2019-01-02T03:28:51.001Z,102128.26
2019-01-02T03:31:20.893Z,102123.55
2019-01-02T03:33:50.865Z,102129.66
2019-01-02T03:36:20.391Z,102132.69
2019-01-02T03:38:49.891Z,102130.67
2019-01-02T03:41:19.391Z,102129.10
2019-01-02T03:43:48.895Z,102125.92
2019-01-02T03:46:18.393Z,102129.80
2019-01-02T03:48:47.889Z,102125.34
2019-01-02T03:51:17.380Z,102141.80
2019-01-02T03:53:46.869Z,102137.23
2019-01-02T03:56:16.369Z,102147.32
2019-01-02T03:58:45.882Z,102148.79
2019-01-02T04:01:15.445Z,102143.34
2019-01-02T04:03:44.929Z,102148.33
2019-01-02T04:06:14.419Z,102144.42
2019-01-02T04:08:43.937Z,102145.89
2019-01-02T04:11:13.423Z,102143.06
2019-01-02T04:13:42.908Z,102151.72
2019-01-02T04:16:12.395Z,102156.42
2019-01-02T04:18:42.852Z,102150.06
2019-01-02T04:21:12.347Z,102151.20
2019-01-02T04:23:41.839Z,102161.26
2019-01-02T04:26:11.344Z,102157.11
2019-01-02T04:28:40.837Z,102155.13
2019-01-02T04:31:10.339Z,102152.33
2019-01-02T04:33:39.843Z,102151.31
2019-01-02T04:36:09.356Z,102150.84
2019-01-02T04:38:39.845Z,102155.84
2019-01-02T04:41:09.353Z,102151.39
2019-01-02T04:43:38.864Z,102161.50
2019-01-02T04:46:08.381Z,102157.70
2019-01-02T04:48:37.905Z,102154.12
2019-01-02T04:51:07.419Z,102151.81
2019-01-02T04:53:36.935Z,102160.98
2019-01-02T04:56:06.438Z,102164.80
2019-01-02T04:58:35.959Z,102166.55
2019-01-02T05:01:05.445Z,102170.16
2019-01-02T05:03:34.936Z,102170.88
2019-01-02T05:06:04.412Z,102174.20
2019-01-02T05:08:33.908Z,102171.02
2019-01-02T05:11:03.418Z,102174.41
2019-01-02T05:13:32.923Z,102176.33
2019-01-02T05:16:02.411Z,102187.28
2019-01-02T05:18:31.913Z,102192.41
2019-01-02T05:21:01.388Z,102189.63
2019-01-02T05:23:30.889Z,102198.42
2019-01-02T05:26:01.331Z,102196.16
2019-01-02T05:28:30.817Z,102198.97
2019-01-02T05:31:00.296Z,102210.69
2019-01-02T05:33:29.800Z,102205.23
2019-01-02T05:35:59.287Z,102204.16
2019-01-02T05:38:28.775Z,102204.97
2019-01-02T05:40:58.276Z,102202.77
2019-01-02T05:43:27.782Z,102195.58
2019-01-02T05:45:57.290Z,102201.16
2019-01-02T05:48:26.796Z,102197.69
2019-01-02T05:50:56.314Z,102205.48
2019-01-02T05:53:25.814Z,102211.55
2019-01-02T05:55:55.315Z,102218.95
2019-01-02T05:58:24.817Z,102232.66
2019-01-02T06:00:54.312Z,102234.42
2019-01-02T06:03:23.798Z,102235.11
2019-01-02T06:05:53.290Z,102235.03
2019-01-02T06:08:22.800Z,102235.14
2019-01-02T06:10:52.287Z,102240.11
2019-01-02T06:13:21.815Z,102244.58
2019-01-02T06:15:51.840Z,102245.95
2019-01-02T06:18:21.356Z,102253.94
2019-01-02T06:20:50.831Z,102245.63
2019-01-02T06:23:20.315Z,102256.78
2019-01-02T06:25:49.805Z,102256.66
2019-01-02T06:28:19.291Z,102263.70
2019-01-02T06:30:48.862Z,102259.20
2019-01-02T06:33:18.347Z,102270.51
2019-01-02T06:35:47.872Z,102269.83
2019-01-02T06:38:17.366Z,102273.70
2019-01-02T06:40:46.904Z,102283.55
2019-01-02T06:43:16.430Z,102287.66
2019-01-02T06:45:45.913Z,102290.89
2019-01-02T06:48:15.400Z,102299.75
2019-01-02T06:50:44.877Z,102300.82
2019-01-02T06:53:14.377Z,102302.87
2019-01-02T06:55:43.847Z,102310.05
2019-01-02T06:58:13.343Z,102308.02
2019-01-02T07:00:44.062Z,102302.78
2019-01-02T07:03:13.532Z,102314.09
2019-01-02T07:05:43.034Z,102327.81
2019-01-02T07:08:12.689Z,102328.70
2019-01-02T07:10:42.175Z,102337.30
2019-01-02T07:13:11.676Z,102347.23
2019-01-02T07:15:41.164Z,102350.60
2019-01-02T07:18:10.696Z,102356.75
2019-01-02T07:20:40.171Z,102357.54
2019-01-02T07:23:09.661Z,102372.42
2019-01-02T07:25:39.156Z,102373.53
2019-01-02T07:28:08.633Z,102375.44
2019-01-02T07:30:38.114Z,102384.52
2019-01-02T07:33:07.606Z,102392.41
2019-01-02T07:36:00.693Z,102402.84
2019-01-02T07:39:06.511Z,102411.84
2019-01-02T07:42:18.379Z,102415.56
2019-01-02T07:45:19.964Z,102379.87
2019-01-02T07:48:11.462Z,102430.07
2019-01-02T07:51:24.977Z,102434.70
2019-01-02T07:54:44.997Z,102434.40
2019-01-02T07:57:50.394Z,102437.86
2019-01-02T08:01:15.979Z,102442.89
2019-01-02T08:04:24.924Z,102447.83
2019-01-02T08:07:40.809Z,102450.09
2019-01-02T08:10:47.508Z,102456.80
2019-01-02T08:13:54.506Z,102455.61
2019-01-02T08:16:55.039Z,102460.53
2019-01-02T08:19:49.423Z,102474.43
2019-01-02T08:22:51.724Z,102474.43
2019-01-02T08:25:44.957Z,102474.02
2019-01-02T08:28:48.653Z,102488.78
2019-01-02T08:31:29.736Z,102485.06
2019-01-02T08:34:28.468Z,102487.24
2019-01-02T08:37:31.863Z,102499.95
2019-01-02T08:40:37.851Z,102501.69
2019-01-02T08:44:00.433Z,102511.15
2019-01-02T08:46:55.563Z,102511.22
2019-01-02T08:49:38.382Z,102527.42
2019-01-02T08:52:42.760Z,102526.80
2019-01-02T08:55:55.761Z,102504.02
2019-01-02T08:58:47.677Z,102533.30
2019-01-02T09:01:57.112Z,102539.41
2019-01-02T09:04:58.855Z,102546.09
2019-01-02T09:08:04.545Z,102554.96
2019-01-02T09:11:07.303Z,102557.33
2019-01-02T09:14:09.384Z,102567.81
2019-01-02T09:17:25.248Z,102575.73
2019-01-02T09:20:30.356Z,102576.16
2019-01-02T09:23:10.702Z,102574.53
2019-01-02T09:26:07.692Z,102591.92
2019-01-02T09:29:08.865Z,102592.89
2019-01-02T09:32:12.111Z,102593.57
2019-01-02T09:35:42.723Z,102606.78
2019-01-02T09:38:35.874Z,102604.41
2019-01-02T09:41:43.304Z,102618.83
2019-01-02T09:45:01.895Z,102620.42
2019-01-02T09:48:05.683Z,102638.14
2019-01-02T09:51:11.972Z,102631.11
2019-01-02T09:54:07.560Z,102636.04
2019-01-02T09:57:00.129Z,102629.84
2019-01-02T10:00:02.592Z,102628.72
2019-01-02T10:03:02.332Z,102631.01
2019-01-02T10:05:54.246Z,102629.22
2019-01-02T10:08:46.824Z,102638.14
2019-01-02T10:11:44.365Z,102651.45
2019-01-02T10:14:35.372Z,102642.59
2019-01-02T10:17:48.310Z,102646.16
2019-01-02T10:20:49.732Z,102651.25
2019-01-02T10:23:42.075Z,102647.21
2019-01-02T10:26:58.776Z,102653.22
2019-01-02T10:29:42.048Z,102663.91
2019-01-02T10:32:59.042Z,102666.91
2019-01-02T10:35:44.195Z,102663.20
2019-01-02T10:38:41.075Z,102664.40
2019-01-02T10:41:39.845Z,102659.66
2019-01-02T10:44:30.906Z,102664.28
2019-01-02T10:47:25.723Z,102662.47
2019-01-02T10:50:12.881Z,102665.05
2019-01-02T10:53:23.133Z,102665.70
2019-01-02T10:56:35.551Z,102667.09
2019-01-02T10:59:28.139Z,102666.65
2019-01-02T11:02:36.710Z,102658.48
2019-01-02T11:06:03.354Z,102689.42
2019-01-02T11:08:50.390Z,102675.23
2019-01-02T11:11:54.798Z,102672.16
2019-01-02T11:14:51.337Z,102674.80
2019-01-02T11:17:57.252Z,102684.97
2019-01-02T11:21:02.867Z,102678.77
2019-01-02T11:24:13.045Z,102680.86
2019-01-02T11:27:02.580Z,102686.41
2019-01-02T11:29:56.373Z,102668.23
2019-01-02T11:33:09.416Z,102684.14
2019-01-02T11:36:13.425Z,102677.55
2019-01-02T11:39:07.599Z,102682.55
2019-01-02T11:42:09.242Z,102685.52
2019-01-02T11:45:11.946Z,102682.66
2019-01-02T11:47:41.443Z,102686.47
2019-01-02T11:50:15.309Z,102684.05
2019-01-02T11:52:44.791Z,102678.43
2019-01-02T11:55:14.276Z,102680.84
2019-01-02T11:57:43.769Z,102682.99
2019-01-02T12:00:15.990Z,102683.99
2019-01-02T12:02:45.459Z,102685.41
2019-01-02T12:05:15.008Z,102678.36
2019-01-02T12:07:44.467Z,102692.47
2019-01-02T12:10:14.057Z,102694.34
2019-01-02T12:12:43.531Z,102693.74
2019-01-02T12:15:13.035Z,102691.57
2019-01-02T12:17:42.497Z,102691.59
2019-01-02T12:20:12.149Z,102697.71
2019-01-02T12:22:41.633Z,102701.99
2019-01-02T12:25:11.140Z,102699.53
2019-01-02T12:27:41.577Z,102699.01
2019-01-02T12:30:13.670Z,102707.39
2019-01-02T12:32:43.148Z,102709.80
2019-01-02T12:35:12.630Z,102708.17
2019-01-02T12:37:42.109Z,102710.52
2019-01-02T12:40:11.587Z,102711.09
2019-01-02T12:42:41.056Z,102704.66
2019-01-02T12:45:10.530Z,102713.05
2019-01-02T12:47:40.003Z,102718.27
2019-01-02T12:50:10.039Z,102718.42
2019-01-02T12:52:40.371Z,102724.81
2019-01-02T12:55:09.842Z,102710.47
2019-01-02T12:57:39.315Z,102723.22
2019-01-02T13:00:12.345Z,102724.20
2019-01-02T13:03:07.022Z,102720.09
2019-01-02T13:06:10.304Z,102732.01
2019-01-02T13:09:35.014Z,102719.14
2019-01-02T13:12:30.232Z,102726.45
2019-01-02T13:15:35.288Z,102744.59
2019-01-02T13:18:30.082Z,102743.53
2019-01-02T13:21:24.148Z,102751.38
2019-01-02T13:24:32.352Z,102756.23
2019-01-02T13:27:24.410Z,102763.93
2019-01-02T13:30:40.625Z,102753.06
2019-01-02T13:33:30.891Z,102762.97
2019-01-02T13:36:15.857Z,102765.59
2019-01-02T13:39:19.510Z,102767.41
2019-01-02T13:42:06.185Z,102769.66
2019-01-02T13:45:12.821Z,102777.61
2019-01-02T13:47:57.092Z,102776.75
2019-01-02T13:50:46.567Z,102775.93
2019-01-02T13:53:16.035Z,102786.77
2019-01-02T13:55:45.508Z,102791.30
2019-01-02T13:58:14.971Z,102779.42
2019-01-02T14:00:44.446Z,102779.55
2019-01-02T14:03:13.917Z,102783.77
2019-01-02T14:05:46.465Z,102797.39
2019-01-02T14:08:15.938Z,102787.09
2019-01-02T14:10:45.422Z,102791.58
2019-01-02T14:13:14.902Z,102784.28
2019-01-02T14:15:44.385Z,102786.22
2019-01-02T14:18:13.927Z,102794.83
2019-01-02T14:20:43.412Z,102794.78
2019-01-02T14:23:12.889Z,102792.50
2019-01-02T14:25:42.360Z,102796.05
2019-01-02T14:28:11.844Z,102795.63
2019-01-02T14:30:41.319Z,102806.64
2019-01-02T14:33:11.115Z,102802.78
2019-01-02T14:35:40.617Z,102797.77
2019-01-02T14:38:10.104Z,102807.14
2019-01-02T14:40:39.592Z,102805.53
2019-01-02T14:43:09.072Z,102812.17
2019-01-02T14:45:38.538Z,102810.44
2019-01-02T14:48:08.012Z,102817.61
2019-01-02T14:50:37.492Z,102816.27
2019-01-02T14:53:06.956Z,102820.19
2019-01-02T14:55:36.424Z,102822.42
2019-01-02T14:58:05.900Z,102826.47
2019-01-02T15:00:35.366Z,102830.40
2019-01-02T15:03:04.826Z,102824.52
2019-01-02T15:05:34.296Z,102833.61
2019-01-02T15:08:03.760Z,102837.02
2019-01-02T15:10:33.224Z,102834.83
2019-01-02T15:13:02.705Z,102843.65
2019-01-02T15:15:32.172Z,102848.25
2019-01-02T15:18:01.641Z,102847.99
2019-01-02T15:20:31.096Z,102847.78
2019-01-02T15:23:00.560Z,102852.91
2019-01-02T15:25:30.022Z,102855.24
2019-01-02T15:27:59.517Z,102862.55
2019-01-02T15:30:28.984Z,102858.67
2019-01-02T15:32:58.477Z,102857.80
2019-01-02T15:35:29.023Z,102863.02
2019-01-02T15:37:58.519Z,102873.23
2019-01-02T15:40:28.002Z,102869.02
2019-01-02T15:42:57.500Z,102878.86
2019-01-02T15:45:26.979Z,102884.55
2019-01-02T15:47:56.477Z,102885.73
2019-01-02T15:50:25.968Z,102889.06
2019-01-02T15:52:55.459Z,102890.45
2019-01-02T15:55:24.915Z,102894.59
2019-01-02T15:57:55.152Z,102904.25
2019-01-02T16:00:24.616Z,102903.12
2019-01-02T16:02:54.099Z,102911.72
2019-01-02T16:05:23.570Z,102913.33
2019-01-02T16:07:53.057Z,102918.23
2019-01-02T16:10:22.533Z,102919.38
2019-01-02T16:12:52.019Z,102920.41
2019-01-02T16:15:21.506Z,102926.15
2019-01-02T16:17:51.065Z,102931.67
2019-01-02T16:20:20.546Z,102929.12
2019-01-02T16:22:50.044Z,102924.64
2019-01-02T16:25:19.529Z,102934.22
2019-01-02T16:27:49.023Z,102928.95
2019-01-02T16:30:18.750Z,102937.48
2019-01-02T16:32:49.195Z,102947.16
2019-01-02T16:35:18.684Z,102938.70
2019-01-02T16:37:48.144Z,102940.62
2019-01-02T16:40:17.634Z,102949.39
2019-01-02T16:42:47.116Z,102951.13
2019-01-02T16:45:16.666Z,102958.22
2019-01-02T16:47:46.160Z,102958.08
2019-01-02T16:50:15.665Z,102957.49
2019-01-02T16:52:45.178Z,102956.38
2019-01-02T16:55:14.679Z,102957.86
2019-01-02T16:57:44.169Z,102956.38
2019-01-02T17:00:14.387Z,102967.00
2019-01-02T17:02:43.852Z,102967.46
2019-01-02T17:05:13.419Z,102967.96
2019-01-02T17:07:42.960Z,102973.26
2019-01-02T17:10:12.508Z,102970.70
2019-01-02T17:12:42.014Z,102974.72
2019-01-02T17:15:11.506Z,102974.60
2019-01-02T17:17:41.026Z,102972.27
2019-01-02T17:20:10.530Z,102976.55
2019-01-02T17:22:39.997Z,102968.75
2019-01-02T17:25:12.434Z,102964.83
2019-01-02T17:27:41.897Z,102977.24
2019-01-02T17:30:11.369Z,102977.91
2019-01-02T17:32:40.838Z,102977.40
2019-01-02T17:35:10.318Z,102983.00
2019-01-02T17:37:39.789Z,102981.36
2019-01-02T17:40:09.565Z,102977.94
2019-01-02T17:42:40.034Z,102988.60
2019-01-02T17:45:09.830Z,102986.83
2019-01-02T17:47:39.315Z,102985.69
2019-01-02T17:50:10.375Z,102983.66
2019-01-02T17:52:40.825Z,102986.34
2019-01-02T17:55:10.303Z,102994.32
2019-01-02T17:57:39.829Z,102988.64
2019-01-02T18:00:11.627Z,102990.92
2019-01-02T18:02:41.139Z,102997.51
2019-01-02T18:05:10.641Z,102991.58
2019-01-02T18:07:40.137Z,102998.06
2019-01-02T18:10:09.980Z,102998.81
2019-01-02T18:12:39.474Z,103002.89
2019-01-02T18:15:10.689Z,103008.34
2019-01-02T18:17:40.177Z,103016.17
2019-01-02T18:20:10.360Z,103017.73
2019-01-02T18:22:39.835Z,103017.34
2019-01-02T18:25:09.357Z,103014.95
2019-01-02T18:27:38.838Z,103015.69
2019-01-02T18:30:10.650Z,103014.81
2019-01-02T18:32:40.519Z,103019.39
2019-01-02T18:35:09.995Z,102983.42
2019-01-02T18:37:39.478Z,103021.17
2019-01-02T18:40:08.942Z,103021.45
2019-01-02T18:42:38.422Z,103026.11
2019-01-02T18:45:09.999Z,103023.21
2019-01-02T18:47:39.204Z,103024.84
2019-01-02T18:50:10.552Z,103027.38
2019-01-02T18:52:40.039Z,103031.42
2019-01-02T18:55:09.589Z,103037.38
2019-01-02T18:57:39.071Z,103037.38
2019-01-02T19:00:10.949Z,103036.34
2019-01-02T19:02:40.434Z,103035.23
2019-01-02T19:05:09.929Z,103042.95
2019-01-02T19:07:40.528Z,103036.63
2019-01-02T19:10:11.969Z,103031.80
2019-01-02T19:12:41.480Z,103049.73
2019-01-02T19:15:13.947Z,103047.20
2019-01-02T19:17:43.471Z,103052.26
2019-01-02T19:20:12.939Z,103052.66
2019-01-02T19:22:42.413Z,103052.37
2019-01-02T19:25:11.910Z,103045.55
2019-01-02T19:27:41.397Z,103050.22
2019-01-02T19:30:10.990Z,103047.43
2019-01-02T19:32:40.493Z,103051.72
2019-01-02T19:35:09.980Z,103050.83
2019-01-02T19:37:39.460Z,103060.18
2019-01-02T19:40:09.737Z,103058.16
2019-01-02T19:42:39.278Z,103027.22
2019-01-02T19:45:09.471Z,103067.14
2019-01-02T19:47:38.991Z,103062.34
2019-01-02T19:50:08.894Z,103065.39
2019-01-02T19:52:38.410Z,103063.87
2019-01-02T19:55:08.444Z,103064.63
2019-01-02T19:57:37.940Z,103063.38
2019-01-02T20:00:09.763Z,103061.59
2019-01-02T20:02:39.303Z,103058.31
2019-01-02T20:05:10.527Z,103062.12
2019-01-02T20:07:40.052Z,103066.94
2019-01-02T20:10:10.379Z,103067.70
2019-01-02T20:12:39.905Z,103065.67
2019-01-02T20:15:11.737Z,103059.59
2019-01-02T20:17:42.191Z,102987.34
2019-01-02T20:20:13.295Z,103014.50
2019-01-02T20:22:42.802Z,103052.53
2019-01-02T20:25:12.299Z,103051.78
2019-01-02T20:27:41.818Z,103054.70
2019-01-02T20:30:11.899Z,103054.19
2019-01-02T20:32:41.409Z,103054.81
2019-01-02T20:35:10.948Z,103059.38
2019-01-02T20:37:40.505Z,103049.75
2019-01-02T20:40:09.997Z,103050.03
2019-01-02T20:42:39.538Z,103051.80
2019-01-02T20:45:10.724Z,103047.74
2019-01-02T20:47:40.261Z,103048.50
2019-01-02T20:50:10.828Z,103046.62
2019-01-02T20:52:40.345Z,103037.78
2019-01-02T20:55:09.868Z,103049.02
2019-01-02T20:57:39.370Z,103047.01
2019-01-02T21:00:10.940Z,103045.75
2019-01-02T21:02:40.436Z,103041.58
2019-01-02T21:05:10.045Z,103042.20
2019-01-02T21:07:39.571Z,103038.02
2019-01-02T21:10:09.687Z,103039.29
2019-01-02T21:12:39.244Z,103042.84
2019-01-02T21:15:10.699Z,103048.89
2019-01-02T21:17:40.218Z,103040.42
2019-01-02T21:20:10.089Z,103039.53
2019-01-02T21:22:39.595Z,103033.72
2019-01-02T21:25:09.484Z,103039.67
2019-01-02T21:27:39.025Z,103042.44
2019-01-02T21:30:09.697Z,103043.84
2019-01-02T21:32:39.402Z,103041.55
2019-01-02T21:35:08.956Z,103047.87
2019-01-02T21:37:38.498Z,103041.68
2019-01-02T21:40:08.974Z,103045.45
2019-01-02T21:42:39.575Z,103043.81
2019-01-02T21:45:10.367Z,103047.45
2019-01-02T21:47:39.895Z,103045.67
2019-01-02T21:50:09.518Z,103042.02
2019-01-02T21:52:39.088Z,103043.78
2019-01-02T21:55:08.676Z,103041.88
2019-01-02T21:57:38.141Z,103044.40
2019-01-02T22:00:10.955Z,103041.11
2019-01-02T22:02:40.629Z,103036.30
2019-01-02T22:05:11.330Z,103038.19
2019-01-02T22:07:40.825Z,103035.01
2019-01-02T22:10:10.318Z,103035.76
2019-01-02T22:12:39.816Z,103034.77
2019-01-02T22:15:11.636Z,103036.01
2019-01-02T22:17:42.073Z,103036.37
2019-01-02T22:20:12.553Z,103034.97
2019-01-02T22:22:42.026Z,103034.97
2019-01-02T22:25:11.590Z,103034.72
2019-01-02T22:27:41.066Z,103034.34
2019-01-02T22:30:10.647Z,103034.06
2019-01-02T22:32:40.150Z,103032.41
2019-01-02T22:35:09.660Z,103033.91
2019-01-02T22:37:39.137Z,102907.19
2019-01-02T22:40:08.914Z,103036.67
2019-01-02T22:42:38.421Z,103029.12
2019-01-02T22:45:08.080Z,103033.65
2019-01-02T22:47:37.584Z,103031.13
2019-01-02T22:50:08.704Z,103025.58
2019-01-02T22:52:38.217Z,103040.21
2019-01-02T22:55:07.718Z,103027.73
2019-01-02T22:57:40.278Z,103030.40
2019-01-02T23:00:35.742Z,103038.97
2019-01-02T23:03:27.014Z,103042.64
2019-01-02T23:06:27.945Z,103042.25
2019-01-02T23:09:12.116Z,103038.33
2019-01-02T23:11:55.651Z,103034.44
2019-01-02T23:14:44.211Z,103036.64
2019-01-02T23:17:36.031Z,103032.48
2019-01-02T23:20:28.780Z,103035.59
2019-01-02T23:23:32.539Z,103024.92
2019-01-02T23:26:20.137Z,103028.94
2019-01-02T23:29:03.363Z,103035.12
2019-01-02T23:31:47.906Z,102962.02
2019-01-02T23:34:42.539Z,103034.53
2019-01-02T23:37:29.747Z,103037.34
2019-01-02T23:40:17.053Z,103036.69
2019-01-02T23:43:17.611Z,103037.67
2019-01-02T23:46:00.508Z,103032.11
2019-01-02T23:48:42.183Z,103040.25
2019-01-02T23:51:33.216Z,103043.45
2019-01-02T23:54:25.423Z,103043.14
2019-01-02T23:57:12.620Z,103046.69
